sensor_id;sensor_type;location;lat;lon;timestamp;P1;durP1;ratioP1;P2;durP2;ratioP2
35150;SDS011;55720;51.972;4.624;2023-03-05T00:02:02;4.00;;;1.50;;
35150;SDS011;55720;51.972;4.624;2023-03-05T00:04:27;7.40;;;1.25;;
35150;SDS011;55720;51.972;4.624;2023-03-05T00:06:53;4.10;;;1.52;;
35150;SDS011;55720;51.972;4.624;2023-03-05T00:09:19;3.60;;;1.40;;
35150;SDS011;55720;51.972;4.624;2023-03-05T00:11:45;7.68;;;1.63;;
35150;SDS011;55720;51.972;4.624;2023-03-05T00:14:11;4.45;;;1.92;;
35150;SDS011;55720;51.972;4.624;2023-03-05T00:16:37;11.77;;;1.77;;
35150;SDS011;55720;51.972;4.624;2023-03-05T00:19:03;5.70;;;1.45;;
35150;SDS011;55720;51.972;4.624;2023-03-05T00:21:33;7.63;;;1.65;;
35150;SDS011;55720;51.972;4.624;2023-03-05T00:24:03;9.90;;;1.83;;
35150;SDS011;55720;51.972;4.624;2023-03-05T00:26:30;6.75;;;1.35;;
35150;SDS011;55720;51.972;4.624;2023-03-05T00:28:58;7.82;;;1.48;;
35150;SDS011;55720;51.972;4.624;2023-03-05T00:31:25;7.32;;;1.50;;
35150;SDS011;55720;51.972;4.624;2023-03-05T00:33:54;6.32;;;1.30;;
35150;SDS011;55720;51.972;4.624;2023-03-05T00:36:22;6.40;;;1.35;;
35150;SDS011;55720;51.972;4.624;2023-03-05T00:38:49;10.40;;;1.67;;
35150;SDS011;55720;51.972;4.624;2023-03-05T00:41:14;6.57;;;1.55;;
35150;SDS011;55720;51.972;4.624;2023-03-05T00:43:43;5.13;;;1.10;;
35150;SDS011;55720;51.972;4.624;2023-03-05T00:46:08;8.25;;;1.27;;
35150;SDS011;55720;51.972;4.624;2023-03-05T00:48:34;9.82;;;1.70;;
35150;SDS011;55720;51.972;4.624;2023-03-05T00:50:59;7.68;;;1.52;;
35150;SDS011;55720;51.972;4.624;2023-03-05T00:53:25;6.10;;;1.60;;
35150;SDS011;55720;51.972;4.624;2023-03-05T00:55:51;10.07;;;1.90;;
35150;SDS011;55720;51.972;4.624;2023-03-05T00:58:16;5.70;;;1.65;;
35150;SDS011;55720;51.972;4.624;2023-03-05T01:00:41;4.47;;;1.48;;
35150;SDS011;55720;51.972;4.624;2023-03-05T01:03:07;4.95;;;1.73;;
35150;SDS011;55720;51.972;4.624;2023-03-05T01:05:32;3.97;;;1.70;;
35150;SDS011;55720;51.972;4.624;2023-03-05T01:07:58;4.68;;;1.67;;
35150;SDS011;55720;51.972;4.624;2023-03-05T01:10:24;9.90;;;2.10;;
35150;SDS011;55720;51.972;4.624;2023-03-05T01:12:53;13.70;;;1.88;;
35150;SDS011;55720;51.972;4.624;2023-03-05T01:15:20;9.80;;;2.47;;
35150;SDS011;55720;51.972;4.624;2023-03-05T01:17:45;13.57;;;2.15;;
35150;SDS011;55720;51.972;4.624;2023-03-05T01:20:12;5.88;;;2.45;;
35150;SDS011;55720;51.972;4.624;2023-03-05T01:22:38;6.40;;;1.95;;
35150;SDS011;55720;51.972;4.624;2023-03-05T01:25:04;7.35;;;2.05;;
35150;SDS011;55720;51.972;4.624;2023-03-05T01:27:29;16.02;;;2.65;;
35150;SDS011;55720;51.972;4.624;2023-03-05T01:29:55;12.13;;;2.70;;
35150;SDS011;55720;51.972;4.624;2023-03-05T01:32:20;9.93;;;1.88;;
35150;SDS011;55720;51.972;4.624;2023-03-05T01:34:45;10.60;;;2.85;;
35150;SDS011;55720;51.972;4.624;2023-03-05T01:37:11;6.57;;;2.13;;
35150;SDS011;55720;51.972;4.624;2023-03-05T01:39:36;6.68;;;2.15;;
35150;SDS011;55720;51.972;4.624;2023-03-05T01:42:02;12.85;;;1.95;;
35150;SDS011;55720;51.972;4.624;2023-03-05T01:44:30;11.52;;;2.40;;
35150;SDS011;55720;51.972;4.624;2023-03-05T01:46:55;10.55;;;1.58;;
35150;SDS011;55720;51.972;4.624;2023-03-05T01:49:28;10.98;;;1.55;;
35150;SDS011;55720;51.972;4.624;2023-03-05T01:54:41;15.30;;;1.98;;
35150;SDS011;55720;51.972;4.624;2023-03-05T01:57:12;8.98;;;1.65;;
35150;SDS011;55720;51.972;4.624;2023-03-05T01:59:41;7.20;;;1.60;;
35150;SDS011;55720;51.972;4.624;2023-03-05T02:02:08;10.38;;;1.98;;
35150;SDS011;55720;51.972;4.624;2023-03-05T02:07:21;7.00;;;1.50;;
35150;SDS011;55720;51.972;4.624;2023-03-05T02:09:48;10.77;;;2.00;;
35150;SDS011;55720;51.972;4.624;2023-03-05T02:12:13;8.40;;;1.50;;
35150;SDS011;55720;51.972;4.624;2023-03-05T02:14:39;9.60;;;1.88;;
35150;SDS011;55720;51.972;4.624;2023-03-05T02:17:07;5.60;;;1.52;;
35150;SDS011;55720;51.972;4.624;2023-03-05T02:19:50;11.93;;;1.90;;
35150;SDS011;55720;51.972;4.624;2023-03-05T02:22:19;6.60;;;1.45;;
35150;SDS011;55720;51.972;4.624;2023-03-05T02:24:46;8.27;;;1.52;;
35150;SDS011;55720;51.972;4.624;2023-03-05T02:27:12;8.05;;;1.27;;
35150;SDS011;55720;51.972;4.624;2023-03-05T02:29:40;6.55;;;1.65;;
35150;SDS011;55720;51.972;4.624;2023-03-05T02:32:07;6.60;;;1.45;;
35150;SDS011;55720;51.972;4.624;2023-03-05T02:34:33;10.50;;;1.63;;
35150;SDS011;55720;51.972;4.624;2023-03-05T02:36:59;6.45;;;1.10;;
35150;SDS011;55720;51.972;4.624;2023-03-05T02:39:26;6.03;;;1.20;;
35150;SDS011;55720;51.972;4.624;2023-03-05T02:41:52;5.10;;;1.30;;
35150;SDS011;55720;51.972;4.624;2023-03-05T02:44:17;3.33;;;1.17;;
35150;SDS011;55720;51.972;4.624;2023-03-05T02:46:42;6.32;;;1.27;;
35150;SDS011;55720;51.972;4.624;2023-03-05T02:49:08;8.50;;;1.17;;
35150;SDS011;55720;51.972;4.624;2023-03-05T02:51:33;7.65;;;1.25;;
35150;SDS011;55720;51.972;4.624;2023-03-05T02:53:59;5.78;;;1.00;;
35150;SDS011;55720;51.972;4.624;2023-03-05T02:56:24;10.75;;;1.55;;
35150;SDS011;55720;51.972;4.624;2023-03-05T02:58:49;4.32;;;1.30;;
35150;SDS011;55720;51.972;4.624;2023-03-05T03:01:18;7.78;;;1.30;;
35150;SDS011;55720;51.972;4.624;2023-03-05T03:03:43;6.72;;;1.70;;
35150;SDS011;55720;51.972;4.624;2023-03-05T03:06:09;13.93;;;1.60;;
35150;SDS011;55720;51.972;4.624;2023-03-05T03:08:34;8.55;;;1.58;;
35150;SDS011;55720;51.972;4.624;2023-03-05T03:11:04;8.30;;;1.70;;
35150;SDS011;55720;51.972;4.624;2023-03-05T03:13:33;4.82;;;1.40;;
35150;SDS011;55720;51.972;4.624;2023-03-05T03:16:32;10.30;;;2.15;;
35150;SDS011;55720;51.972;4.624;2023-03-05T03:18:51;5.00;;;1.55;;
35150;SDS011;55720;51.972;4.624;2023-03-05T03:21:17;8.13;;;1.70;;
35150;SDS011;55720;51.972;4.624;2023-03-05T03:23:44;6.30;;;1.42;;
35150;SDS011;55720;51.972;4.624;2023-03-05T03:26:10;7.70;;;1.83;;
35150;SDS011;55720;51.972;4.624;2023-03-05T03:28:35;4.55;;;1.70;;
35150;SDS011;55720;51.972;4.624;2023-03-05T03:31:00;8.68;;;1.85;;
35150;SDS011;55720;51.972;4.624;2023-03-05T03:33:26;6.28;;;1.65;;
35150;SDS011;55720;51.972;4.624;2023-03-05T03:35:51;5.93;;;1.38;;
35150;SDS011;55720;51.972;4.624;2023-03-05T03:38:16;7.82;;;1.27;;
35150;SDS011;55720;51.972;4.624;2023-03-05T03:40:42;7.40;;;1.30;;
35150;SDS011;55720;51.972;4.624;2023-03-05T03:43:08;7.40;;;1.33;;
35150;SDS011;55720;51.972;4.624;2023-03-05T03:45:33;5.38;;;1.10;;
35150;SDS011;55720;51.972;4.624;2023-03-05T03:47:59;2.67;;;0.98;;
35150;SDS011;55720;51.972;4.624;2023-03-05T03:50:24;5.13;;;1.30;;
35150;SDS011;55720;51.972;4.624;2023-03-05T03:52:50;4.60;;;1.20;;
35150;SDS011;55720;51.972;4.624;2023-03-05T03:55:15;7.07;;;0.98;;
35150;SDS011;55720;51.972;4.624;2023-03-05T03:57:41;3.60;;;1.00;;
35150;SDS011;55720;51.972;4.624;2023-03-05T04:00:08;4.38;;;1.00;;
35150;SDS011;55720;51.972;4.624;2023-03-05T04:02:35;2.40;;;0.63;;
35150;SDS011;55720;51.972;4.624;2023-03-05T04:05:00;2.45;;;0.57;;
35150;SDS011;55720;51.972;4.624;2023-03-05T04:07:26;2.22;;;0.55;;
35150;SDS011;55720;51.972;4.624;2023-03-05T04:09:52;2.53;;;0.68;;
35150;SDS011;55720;51.972;4.624;2023-03-05T04:12:17;3.15;;;0.73;;
35150;SDS011;55720;51.972;4.624;2023-03-05T04:14:44;3.22;;;0.60;;
35150;SDS011;55720;51.972;4.624;2023-03-05T04:17:10;2.10;;;0.60;;
35150;SDS011;55720;51.972;4.624;2023-03-05T04:19:36;0.82;;;0.60;;
35150;SDS011;55720;51.972;4.624;2023-03-05T04:22:02;5.30;;;0.55;;
35150;SDS011;55720;51.972;4.624;2023-03-05T04:24:27;1.83;;;0.80;;
35150;SDS011;55720;51.972;4.624;2023-03-05T04:26:53;3.35;;;0.82;;
35150;SDS011;55720;51.972;4.624;2023-03-05T04:29:18;2.28;;;0.65;;
35150;SDS011;55720;51.972;4.624;2023-03-05T04:31:44;1.67;;;0.90;;
35150;SDS011;55720;51.972;4.624;2023-03-05T04:34:09;1.08;;;0.70;;
35150;SDS011;55720;51.972;4.624;2023-03-05T04:36:35;4.43;;;1.00;;
35150;SDS011;55720;51.972;4.624;2023-03-05T04:39:01;4.00;;;1.63;;
35150;SDS011;55720;51.972;4.624;2023-03-05T04:41:26;4.40;;;1.30;;
35150;SDS011;55720;51.972;4.624;2023-03-05T04:43:52;3.38;;;1.63;;
35150;SDS011;55720;51.972;4.624;2023-03-05T04:46:17;6.93;;;1.83;;
35150;SDS011;55720;51.972;4.624;2023-03-05T04:48:42;4.30;;;1.70;;
35150;SDS011;55720;51.972;4.624;2023-03-05T04:51:08;5.72;;;1.92;;
35150;SDS011;55720;51.972;4.624;2023-03-05T04:53:33;4.20;;;1.90;;
35150;SDS011;55720;51.972;4.624;2023-03-05T04:55:59;2.15;;;1.65;;
35150;SDS011;55720;51.972;4.624;2023-03-05T04:58:25;3.20;;;2.00;;
35150;SDS011;55720;51.972;4.624;2023-03-05T05:00:51;3.67;;;2.38;;
35150;SDS011;55720;51.972;4.624;2023-03-05T05:03:16;6.93;;;2.47;;
35150;SDS011;55720;51.972;4.624;2023-03-05T05:05:41;5.95;;;2.30;;
35150;SDS011;55720;51.972;4.624;2023-03-05T05:08:07;3.13;;;2.13;;
35150;SDS011;55720;51.972;4.624;2023-03-05T05:10:32;5.15;;;2.40;;
35150;SDS011;55720;51.972;4.624;2023-03-05T05:12:58;3.72;;;2.03;;
35150;SDS011;55720;51.972;4.624;2023-03-05T05:15:23;6.15;;;2.38;;
35150;SDS011;55720;51.972;4.624;2023-03-05T05:17:48;2.20;;;2.00;;
35150;SDS011;55720;51.972;4.624;2023-03-05T05:20:14;2.45;;;2.10;;
35150;SDS011;55720;51.972;4.624;2023-03-05T05:22:44;6.78;;;2.17;;
35150;SDS011;55720;51.972;4.624;2023-03-05T05:25:09;5.10;;;1.75;;
35150;SDS011;55720;51.972;4.624;2023-03-05T05:27:36;4.95;;;2.10;;
35150;SDS011;55720;51.972;4.624;2023-03-05T05:30:02;4.18;;;2.13;;
35150;SDS011;55720;51.972;4.624;2023-03-05T05:32:28;3.40;;;1.50;;
35150;SDS011;55720;51.972;4.624;2023-03-05T05:34:54;2.80;;;1.17;;
35150;SDS011;55720;51.972;4.624;2023-03-05T05:37:20;2.92;;;1.23;;
35150;SDS011;55720;51.972;4.624;2023-03-05T05:39:46;5.80;;;1.45;;
35150;SDS011;55720;51.972;4.624;2023-03-05T05:42:14;3.13;;;1.10;;
35150;SDS011;55720;51.972;4.624;2023-03-05T05:44:43;3.53;;;1.20;;
35150;SDS011;55720;51.972;4.624;2023-03-05T05:47:10;5.80;;;1.70;;
35150;SDS011;55720;51.972;4.624;2023-03-05T05:49:36;5.03;;;1.38;;
35150;SDS011;55720;51.972;4.624;2023-03-05T05:52:01;2.17;;;1.08;;
35150;SDS011;55720;51.972;4.624;2023-03-05T05:54:27;2.38;;;1.30;;
35150;SDS011;55720;51.972;4.624;2023-03-05T05:56:52;3.75;;;1.00;;
35150;SDS011;55720;51.972;4.624;2023-03-05T05:59:18;4.88;;;1.40;;
35150;SDS011;55720;51.972;4.624;2023-03-05T06:01:43;1.88;;;1.20;;
35150;SDS011;55720;51.972;4.624;2023-03-05T06:04:08;1.67;;;1.50;;
35150;SDS011;55720;51.972;4.624;2023-03-05T06:06:34;3.78;;;1.00;;
35150;SDS011;55720;51.972;4.624;2023-03-05T06:08:59;2.30;;;1.50;;
35150;SDS011;55720;51.972;4.624;2023-03-05T06:11:25;2.28;;;1.17;;
35150;SDS011;55720;51.972;4.624;2023-03-05T06:13:51;6.68;;;1.40;;
35150;SDS011;55720;51.972;4.624;2023-03-05T06:16:18;4.82;;;1.10;;
35150;SDS011;55720;51.972;4.624;2023-03-05T06:18:46;3.72;;;1.25;;
35150;SDS011;55720;51.972;4.624;2023-03-05T06:21:12;4.70;;;1.35;;
35150;SDS011;55720;51.972;4.624;2023-03-05T06:23:41;1.27;;;0.75;;
35150;SDS011;55720;51.972;4.624;2023-03-05T06:26:09;3.20;;;0.63;;
35150;SDS011;55720;51.972;4.624;2023-03-05T06:28:36;3.35;;;0.70;;
35150;SDS011;55720;51.972;4.624;2023-03-05T06:31:02;1.30;;;0.50;;
35150;SDS011;55720;51.972;4.624;2023-03-05T06:33:39;2.50;;;0.57;;
35150;SDS011;55720;51.972;4.624;2023-03-05T06:36:06;8.27;;;0.73;;
35150;SDS011;55720;51.972;4.624;2023-03-05T06:38:36;1.58;;;0.40;;
35150;SDS011;55720;51.972;4.624;2023-03-05T06:41:03;1.35;;;0.30;;
35150;SDS011;55720;51.972;4.624;2023-03-05T06:43:31;3.17;;;0.50;;
35150;SDS011;55720;51.972;4.624;2023-03-05T06:46:04;3.38;;;0.55;;
35150;SDS011;55720;51.972;4.624;2023-03-05T06:48:50;2.95;;;0.68;;
35150;SDS011;55720;51.972;4.624;2023-03-05T06:51:20;1.60;;;0.60;;
35150;SDS011;55720;51.972;4.624;2023-03-05T06:53:51;5.22;;;0.88;;
35150;SDS011;55720;51.972;4.624;2023-03-05T06:56:17;4.88;;;1.17;;
35150;SDS011;55720;51.972;4.624;2023-03-05T06:58:44;2.55;;;1.17;;
35150;SDS011;55720;51.972;4.624;2023-03-05T07:01:10;2.33;;;1.13;;
35150;SDS011;55720;51.972;4.624;2023-03-05T07:03:36;1.92;;;1.23;;
35150;SDS011;55720;51.972;4.624;2023-03-05T07:06:06;2.42;;;1.30;;
35150;SDS011;55720;51.972;4.624;2023-03-05T07:08:33;5.20;;;1.35;;
35150;SDS011;55720;51.972;4.624;2023-03-05T07:10:59;3.60;;;1.63;;
35150;SDS011;55720;51.972;4.624;2023-03-05T07:13:25;2.58;;;1.85;;
35150;SDS011;55720;51.972;4.624;2023-03-05T07:15:51;2.97;;;1.58;;
35150;SDS011;55720;51.972;4.624;2023-03-05T07:18:18;5.95;;;1.60;;
35150;SDS011;55720;51.972;4.624;2023-03-05T07:20:43;5.60;;;1.80;;
35150;SDS011;55720;51.972;4.624;2023-03-05T07:23:08;5.07;;;1.90;;
35150;SDS011;55720;51.972;4.624;2023-03-05T07:25:34;5.50;;;2.15;;
35150;SDS011;55720;51.972;4.624;2023-03-05T07:28:02;4.55;;;2.53;;
35150;SDS011;55720;51.972;4.624;2023-03-05T07:30:29;4.72;;;2.00;;
35150;SDS011;55720;51.972;4.624;2023-03-05T07:32:55;3.60;;;1.85;;
35150;SDS011;55720;51.972;4.624;2023-03-05T07:35:20;3.03;;;2.03;;
35150;SDS011;55720;51.972;4.624;2023-03-05T07:37:45;7.00;;;1.90;;
35150;SDS011;55720;51.972;4.624;2023-03-05T07:40:11;3.17;;;1.80;;
35150;SDS011;55720;51.972;4.624;2023-03-05T07:42:36;5.75;;;2.00;;
35150;SDS011;55720;51.972;4.624;2023-03-05T07:45:02;2.50;;;2.05;;
35150;SDS011;55720;51.972;4.624;2023-03-05T07:47:27;4.00;;;1.60;;
35150;SDS011;55720;51.972;4.624;2023-03-05T07:49:54;2.78;;;1.92;;
35150;SDS011;55720;51.972;4.624;2023-03-05T07:52:20;4.78;;;1.98;;
35150;SDS011;55720;51.972;4.624;2023-03-05T07:54:45;5.75;;;2.30;;
35150;SDS011;55720;51.972;4.624;2023-03-05T07:57:11;2.88;;;1.15;;
35150;SDS011;55720;51.972;4.624;2023-03-05T07:59:37;1.27;;;1.10;;
35150;SDS011;55720;51.972;4.624;2023-03-05T08:02:03;1.90;;;1.08;;
35150;SDS011;55720;51.972;4.624;2023-03-05T08:04:28;5.68;;;1.33;;
35150;SDS011;55720;51.972;4.624;2023-03-05T08:06:56;4.05;;;1.13;;
35150;SDS011;55720;51.972;4.624;2023-03-05T08:09:22;4.57;;;1.08;;
35150;SDS011;55720;51.972;4.624;2023-03-05T08:11:47;2.20;;;0.80;;
35150;SDS011;55720;51.972;4.624;2023-03-05T08:14:12;2.10;;;0.70;;
35150;SDS011;55720;51.972;4.624;2023-03-05T08:16:38;4.57;;;1.10;;
35150;SDS011;55720;51.972;4.624;2023-03-05T08:19:04;4.40;;;0.88;;
35150;SDS011;55720;51.972;4.624;2023-03-05T08:21:31;1.75;;;0.80;;
35150;SDS011;55720;51.972;4.624;2023-03-05T08:23:59;1.90;;;0.60;;
35150;SDS011;55720;51.972;4.624;2023-03-05T08:26:29;2.75;;;0.68;;
35150;SDS011;55720;51.972;4.624;2023-03-05T08:28:56;2.55;;;0.90;;
35150;SDS011;55720;51.972;4.624;2023-03-05T08:31:23;0.90;;;0.65;;
35150;SDS011;55720;51.972;4.624;2023-03-05T08:33:51;3.30;;;0.50;;
35150;SDS011;55720;51.972;4.624;2023-03-05T08:36:18;3.30;;;0.70;;
35150;SDS011;55720;51.972;4.624;2023-03-05T08:38:44;2.05;;;0.40;;
35150;SDS011;55720;51.972;4.624;2023-03-05T08:41:11;0.80;;;0.47;;
35150;SDS011;55720;51.972;4.624;2023-03-05T08:43:37;1.92;;;0.60;;
35150;SDS011;55720;51.972;4.624;2023-03-05T08:46:02;1.45;;;0.57;;
35150;SDS011;55720;51.972;4.624;2023-03-05T08:48:28;1.40;;;0.47;;
35150;SDS011;55720;51.972;4.624;2023-03-05T08:50:54;2.78;;;0.50;;
35150;SDS011;55720;51.972;4.624;2023-03-05T08:53:20;3.88;;;0.43;;
35150;SDS011;55720;51.972;4.624;2023-03-05T08:55:56;5.43;;;0.80;;
35150;SDS011;55720;51.972;4.624;2023-03-05T08:58:22;2.53;;;0.50;;
35150;SDS011;55720;51.972;4.624;2023-03-05T09:00:48;0.93;;;0.30;;
35150;SDS011;55720;51.972;4.624;2023-03-05T09:03:14;1.25;;;0.68;;
35150;SDS011;55720;51.972;4.624;2023-03-05T09:05:39;1.70;;;0.52;;
35150;SDS011;55720;51.972;4.624;2023-03-05T09:08:05;3.10;;;0.55;;
35150;SDS011;55720;51.972;4.624;2023-03-05T09:10:30;0.88;;;0.32;;
35150;SDS011;55720;51.972;4.624;2023-03-05T09:12:55;2.92;;;0.50;;
35150;SDS011;55720;51.972;4.624;2023-03-05T09:15:21;2.22;;;0.50;;
35150;SDS011;55720;51.972;4.624;2023-03-05T09:17:46;5.03;;;1.05;;
35150;SDS011;55720;51.972;4.624;2023-03-05T09:20:12;1.92;;;0.70;;
35150;SDS011;55720;51.972;4.624;2023-03-05T09:22:38;2.47;;;0.85;;
35150;SDS011;55720;51.972;4.624;2023-03-05T09:25:04;3.60;;;0.55;;
35150;SDS011;55720;51.972;4.624;2023-03-05T09:27:34;2.47;;;0.60;;
35150;SDS011;55720;51.972;4.624;2023-03-05T09:30:00;2.47;;;0.60;;
35150;SDS011;55720;51.972;4.624;2023-03-05T09:32:26;1.92;;;0.45;;
35150;SDS011;55720;51.972;4.624;2023-03-05T09:34:51;4.13;;;0.50;;
35150;SDS011;55720;51.972;4.624;2023-03-05T09:37:17;3.53;;;0.43;;
35150;SDS011;55720;51.972;4.624;2023-03-05T09:39:42;0.68;;;0.32;;
35150;SDS011;55720;51.972;4.624;2023-03-05T09:45:22;1.60;;;0.52;;
35150;SDS011;55720;51.972;4.624;2023-03-05T09:55:52;1.58;;;0.60;;
35150;SDS011;55720;51.972;4.624;2023-03-05T09:58:33;1.58;;;0.63;;
35150;SDS011;55720;51.972;4.624;2023-03-05T10:01:28;1.70;;;0.50;;
35150;SDS011;55720;51.972;4.624;2023-03-05T10:04:13;1.88;;;0.50;;
35150;SDS011;55720;51.972;4.624;2023-03-05T10:09:45;0.80;;;0.40;;
35150;SDS011;55720;51.972;4.624;2023-03-05T10:12:22;2.05;;;0.43;;
35150;SDS011;55720;51.972;4.624;2023-03-05T10:14:49;1.52;;;0.20;;
35150;SDS011;55720;51.972;4.624;2023-03-05T10:28:26;2.47;;;1.13;;
35150;SDS011;55720;51.972;4.624;2023-03-05T10:33:35;2.90;;;1.15;;
35150;SDS011;55720;51.972;4.624;2023-03-05T10:42:11;1.55;;;0.43;;
35150;SDS011;55720;51.972;4.624;2023-03-05T10:44:54;2.28;;;0.77;;
35150;SDS011;55720;51.972;4.624;2023-03-05T10:50:26;1.58;;;0.60;;
35150;SDS011;55720;51.972;4.624;2023-03-05T10:53:03;3.03;;;0.70;;
35150;SDS011;55720;51.972;4.624;2023-03-05T10:55:38;1.38;;;0.52;;
35150;SDS011;55720;51.972;4.624;2023-03-05T10:58:11;0.90;;;0.40;;
35150;SDS011;55720;51.972;4.624;2023-03-05T11:00:37;1.73;;;0.45;;
35150;SDS011;55720;51.972;4.624;2023-03-05T11:03:09;0.77;;;0.40;;
35150;SDS011;55720;51.972;4.624;2023-03-05T11:08:00;1.77;;;0.38;;
35150;SDS011;55720;51.972;4.624;2023-03-05T11:10:41;0.98;;;0.30;;
35150;SDS011;55720;51.972;4.624;2023-03-05T11:13:22;1.58;;;0.40;;
35150;SDS011;55720;51.972;4.624;2023-03-05T11:16:04;0.75;;;0.60;;
35150;SDS011;55720;51.972;4.624;2023-03-05T11:21:06;0.95;;;0.75;;
35150;SDS011;55720;51.972;4.624;2023-03-05T11:23:33;1.35;;;0.40;;
35150;SDS011;55720;51.972;4.624;2023-03-05T11:28:40;0.73;;;0.30;;
35150;SDS011;55720;51.972;4.624;2023-03-05T11:31:21;2.05;;;0.80;;
35150;SDS011;55720;51.972;4.624;2023-03-05T11:36:25;4.50;;;0.40;;
35150;SDS011;55720;51.972;4.624;2023-03-05T11:38:55;0.80;;;0.40;;
35150;SDS011;55720;51.972;4.624;2023-03-05T11:44:08;0.85;;;0.40;;
35150;SDS011;55720;51.972;4.624;2023-03-05T11:46:39;2.67;;;0.50;;
35150;SDS011;55720;51.972;4.624;2023-03-05T11:49:07;2.85;;;0.32;;
35150;SDS011;55720;51.972;4.624;2023-03-05T11:51:50;2.55;;;0.60;;
35150;SDS011;55720;51.972;4.624;2023-03-05T11:54:25;0.63;;;0.40;;
35150;SDS011;55720;51.972;4.624;2023-03-05T11:57:13;0.55;;;0.30;;
35150;SDS011;55720;51.972;4.624;2023-03-05T11:59:40;2.15;;;0.30;;
35150;SDS011;55720;51.972;4.624;2023-03-05T12:02:15;2.65;;;0.40;;
35150;SDS011;55720;51.972;4.624;2023-03-05T12:04:44;1.10;;;0.43;;
35150;SDS011;55720;51.972;4.624;2023-03-05T12:07:10;2.15;;;0.40;;
35150;SDS011;55720;51.972;4.624;2023-03-05T12:09:44;2.67;;;0.40;;
35150;SDS011;55720;51.972;4.624;2023-03-05T12:17:57;2.10;;;0.40;;
35150;SDS011;55720;51.972;4.624;2023-03-05T12:20:48;1.38;;;0.30;;
35150;SDS011;55720;51.972;4.624;2023-03-05T12:23:53;0.57;;;0.30;;
35150;SDS011;55720;51.972;4.624;2023-03-05T12:34:59;1.17;;;0.40;;
35150;SDS011;55720;51.972;4.624;2023-03-05T12:47:34;1.23;;;0.40;;
35150;SDS011;55720;51.972;4.624;2023-03-05T12:50:00;2.10;;;0.30;;
35150;SDS011;55720;51.972;4.624;2023-03-05T12:52:27;3.08;;;0.32;;
35150;SDS011;55720;51.972;4.624;2023-03-05T12:57:43;1.15;;;0.60;;
35150;SDS011;55720;51.972;4.624;2023-03-05T13:00:13;1.50;;;0.28;;
35150;SDS011;55720;51.972;4.624;2023-03-05T13:02:45;2.55;;;0.38;;
35150;SDS011;55720;51.972;4.624;2023-03-05T13:05:50;1.83;;;0.20;;
35150;SDS011;55720;51.972;4.624;2023-03-05T13:08:23;2.28;;;0.30;;
35150;SDS011;55720;51.972;4.624;2023-03-05T13:10:52;0.63;;;0.32;;
35150;SDS011;55720;51.972;4.624;2023-03-05T13:13:20;2.58;;;0.30;;
35150;SDS011;55720;51.972;4.624;2023-03-05T13:15:48;1.70;;;0.57;;
35150;SDS011;55720;51.972;4.624;2023-03-05T13:18:24;0.47;;;0.25;;
35150;SDS011;55720;51.972;4.624;2023-03-05T13:21:10;1.25;;;0.30;;
35150;SDS011;55720;51.972;4.624;2023-03-05T13:23:44;0.47;;;0.10;;
35150;SDS011;55720;51.972;4.624;2023-03-05T13:26:18;1.27;;;0.20;;
35150;SDS011;55720;51.972;4.624;2023-03-05T13:29:01;5.05;;;0.30;;
35150;SDS011;55720;51.972;4.624;2023-03-05T13:31:30;0.35;;;0.20;;
35150;SDS011;55720;51.972;4.624;2023-03-05T13:33:58;1.35;;;0.20;;
35150;SDS011;55720;51.972;4.624;2023-03-05T13:36:38;2.80;;;0.20;;
35150;SDS011;55720;51.972;4.624;2023-03-05T13:39:04;0.60;;;0.20;;
35150;SDS011;55720;51.972;4.624;2023-03-05T13:41:31;1.88;;;0.30;;
35150;SDS011;55720;51.972;4.624;2023-03-05T13:44:00;2.38;;;0.60;;
35150;SDS011;55720;51.972;4.624;2023-03-05T13:46:31;0.25;;;0.20;;
35150;SDS011;55720;51.972;4.624;2023-03-05T13:51:43;0.90;;;0.30;;
35150;SDS011;55720;51.972;4.624;2023-03-05T13:54:30;4.00;;;0.40;;
35150;SDS011;55720;51.972;4.624;2023-03-05T13:56:59;3.25;;;0.50;;
35150;SDS011;55720;51.972;4.624;2023-03-05T13:59:32;3.70;;;0.40;;
35150;SDS011;55720;51.972;4.624;2023-03-05T14:02:20;2.53;;;0.38;;
35150;SDS011;55720;51.972;4.624;2023-03-05T14:04:46;3.15;;;0.30;;
35150;SDS011;55720;51.972;4.624;2023-03-05T14:07:24;3.00;;;0.60;;
35150;SDS011;55720;51.972;4.624;2023-03-05T14:09:55;2.42;;;0.40;;
35150;SDS011;55720;51.972;4.624;2023-03-05T14:12:34;0.70;;;0.30;;
35150;SDS011;55720;51.972;4.624;2023-03-05T14:15:03;2.40;;;0.40;;
35150;SDS011;55720;51.972;4.624;2023-03-05T14:17:43;0.93;;;0.40;;
35150;SDS011;55720;51.972;4.624;2023-03-05T14:22:39;2.15;;;0.40;;
35150;SDS011;55720;51.972;4.624;2023-03-05T14:25:23;3.35;;;0.47;;
35150;SDS011;55720;51.972;4.624;2023-03-05T14:27:57;4.63;;;0.30;;
35150;SDS011;55720;51.972;4.624;2023-03-05T14:30:23;3.13;;;0.75;;
35150;SDS011;55720;51.972;4.624;2023-03-05T14:32:50;1.45;;;0.40;;
35150;SDS011;55720;51.972;4.624;2023-03-05T14:35:20;3.53;;;0.32;;
35150;SDS011;55720;51.972;4.624;2023-03-05T14:37:48;0.43;;;0.20;;
35150;SDS011;55720;51.972;4.624;2023-03-05T14:40:19;2.15;;;0.40;;
35150;SDS011;55720;51.972;4.624;2023-03-05T14:42:53;2.75;;;0.47;;
35150;SDS011;55720;51.972;4.624;2023-03-05T14:45:27;0.52;;;0.30;;
35150;SDS011;55720;51.972;4.624;2023-03-05T14:47:55;1.05;;;0.30;;
35150;SDS011;55720;51.972;4.624;2023-03-05T14:50:23;2.05;;;0.90;;
35150;SDS011;55720;51.972;4.624;2023-03-05T14:52:50;0.50;;;0.25;;
35150;SDS011;55720;51.972;4.624;2023-03-05T14:55:21;2.03;;;0.35;;
35150;SDS011;55720;51.972;4.624;2023-03-05T14:57:48;1.33;;;0.40;;
35150;SDS011;55720;51.972;4.624;2023-03-05T15:00:16;0.73;;;0.30;;
35150;SDS011;55720;51.972;4.624;2023-03-05T15:02:47;4.15;;;0.57;;
35150;SDS011;55720;51.972;4.624;2023-03-05T15:05:13;0.52;;;0.30;;
35150;SDS011;55720;51.972;4.624;2023-03-05T15:07:39;1.52;;;0.60;;
35150;SDS011;55720;51.972;4.624;2023-03-05T15:10:06;1.13;;;0.47;;
35150;SDS011;55720;51.972;4.624;2023-03-05T15:12:32;0.70;;;0.30;;
35150;SDS011;55720;51.972;4.624;2023-03-05T15:14:58;1.38;;;0.30;;
35150;SDS011;55720;51.972;4.624;2023-03-05T15:20:00;2.40;;;0.40;;
35150;SDS011;55720;51.972;4.624;2023-03-05T15:22:30;2.33;;;0.30;;
35150;SDS011;55720;51.972;4.624;2023-03-05T15:24:55;2.10;;;0.40;;
35150;SDS011;55720;51.972;4.624;2023-03-05T15:27:20;1.55;;;0.40;;
35150;SDS011;55720;51.972;4.624;2023-03-05T15:29:46;1.38;;;0.30;;
35150;SDS011;55720;51.972;4.624;2023-03-05T15:32:11;1.70;;;0.82;;
35150;SDS011;55720;51.972;4.624;2023-03-05T15:34:36;1.85;;;0.20;;
35150;SDS011;55720;51.972;4.624;2023-03-05T15:37:02;3.08;;;0.40;;
35150;SDS011;55720;51.972;4.624;2023-03-05T15:39:28;1.40;;;0.38;;
35150;SDS011;55720;51.972;4.624;2023-03-05T15:41:54;2.67;;;0.60;;
35150;SDS011;55720;51.972;4.624;2023-03-05T15:44:20;2.53;;;0.30;;
35150;SDS011;55720;51.972;4.624;2023-03-05T15:46:45;0.85;;;0.20;;
35150;SDS011;55720;51.972;4.624;2023-03-05T15:49:11;1.38;;;1.27;;
35150;SDS011;55720;51.972;4.624;2023-03-05T15:51:37;1.60;;;0.40;;
35150;SDS011;55720;51.972;4.624;2023-03-05T15:54:03;7.05;;;0.50;;
35150;SDS011;55720;51.972;4.624;2023-03-05T15:56:28;1.27;;;0.32;;
35150;SDS011;55720;51.972;4.624;2023-03-05T15:58:54;1.33;;;0.43;;
35150;SDS011;55720;51.972;4.624;2023-03-05T16:01:19;1.05;;;0.30;;
35150;SDS011;55720;51.972;4.624;2023-03-05T16:03:45;0.70;;;0.43;;
35150;SDS011;55720;51.972;4.624;2023-03-05T16:06:11;3.55;;;0.70;;
35150;SDS011;55720;51.972;4.624;2023-03-05T16:08:39;2.03;;;0.80;;
35150;SDS011;55720;51.972;4.624;2023-03-05T16:11:08;4.53;;;0.60;;
35150;SDS011;55720;51.972;4.624;2023-03-05T16:13:34;1.45;;;0.80;;
35150;SDS011;55720;51.972;4.624;2023-03-05T16:16:00;1.98;;;0.98;;
35150;SDS011;55720;51.972;4.624;2023-03-05T16:18:28;5.00;;;0.65;;
35150;SDS011;55720;51.972;4.624;2023-03-05T16:20:55;1.40;;;0.60;;
35150;SDS011;55720;51.972;4.624;2023-03-05T16:23:20;2.65;;;0.60;;
35150;SDS011;55720;51.972;4.624;2023-03-05T16:25:46;1.20;;;0.40;;